Time;durP1;ratioP1;P1;durP2;ratioP2;P2;SDS_P1;SDS_P2;PMS_P1;PMS_P2;Temp;Humidity;BMP_temperature;BMP_pressure;BME280_temperature;BME280_humidity;BME280_pressure;Samples;Min_cycle;Max_cycle;Signal;HPM_P1;HPM_P2
2021/07/18 00:00:18;0.00;0.00;0.62;0.00;0.00;0.62;;;;;23.20;72.60;;;;;;2255259;61;6092;-75
2021/07/18 00:02:43;0.00;0.00;0.62;0.00;0.00;0.62;;;;;23.30;72.90;;;;;;2256125;61;6140;-76
2021/07/18 00:05:09;0.00;0.00;0.62;0.00;0.00;0.62;;;;;23.30;73.00;;;;;;2261315;61;6271;-76
2021/07/18 00:07:35;0.00;0.00;0.62;0.00;0.00;0.62;;;;;23.30;73.30;;;;;;2256184;61;6117;-76
2021/07/18 00:10:00;0.00;0.00;0.62;0.00;0.00;0.62;;;;;23.40;73.40;;;;;;2258703;61;6225;-76
2021/07/18 00:12:26;54518.00;0.18;95.00;0.00;0.00;0.62;;;;;23.40;73.50;;;;;;2256062;61;6135;-74
2021/07/18 00:14:52;0.00;0.00;0.62;0.00;0.00;0.62;;;;;23.40;73.80;;;;;;2256323;61;4800;-74
2021/07/18 00:17:17;0.00;0.00;0.62;0.00;0.00;0.62;;;;;23.40;74.20;;;;;;2261630;61;6196;-75
2021/07/18 00:19:43;243591.00;0.81;420.93;148712.00;0.50;257.59;;;;;23.40;74.40;;;;;;2256730;61;6312;-75
2021/07/18 00:22:09;0.00;0.00;0.62;0.00;0.00;0.62;;;;;23.50;74.60;;;;;;2256384;61;6479;-75
2021/07/18 00:24:35;284643.00;0.95;491.52;160589.00;0.54;278.05;;;;;23.50;74.70;;;;;;2256344;61;6067;-75
2021/07/18 00:27:00;0.00;0.00;0.62;0.00;0.00;0.62;;;;;23.50;74.80;;;;;;2255555;61;6051;-75
2021/07/18 00:29:26;0.00;0.00;0.62;0.00;0.00;0.62;;;;;23.50;74.80;;;;;;2255500;61;5869;-74
2021/07/18 00:31:52;54590.00;0.18;95.12;0.00;0.00;0.62;;;;;23.50;74.90;;;;;;2256716;61;6131;-75
2021/07/18 00:34:18;0.00;0.00;0.62;0.00;0.00;0.62;;;;;23.50;75.10;;;;;;2256299;61;6156;-75
2021/07/18 00:36:44;0.00;0.00;0.62;0.00;0.00;0.62;;;;;23.50;75.10;;;;;;2255570;61;6188;-75
2021/07/18 00:39:10;0.00;0.00;0.62;0.00;0.00;0.62;;;;;23.50;75.30;;;;;;2256192;61;6062;-75
2021/07/18 00:41:35;0.00;0.00;0.62;0.00;0.00;0.62;;;;;23.50;75.30;;;;;;2254797;61;6479;-75
2021/07/18 00:44:01;0.00;0.00;0.62;0.00;0.00;0.62;;;;;23.50;75.50;;;;;;2255395;61;6290;-75
2021/07/18 00:46:26;0.00;0.00;0.62;0.00;0.00;0.62;;;;;23.50;75.50;;;;;;2256053;61;6209;-75
2021/07/18 00:48:52;128835.00;0.43;223.32;0.00;0.00;0.62;;;;;23.50;75.60;;;;;;2262736;61;6275;-75
2021/07/18 00:51:18;0.00;0.00;0.62;0.00;0.00;0.62;;;;;23.50;75.60;;;;;;2256032;61;6588;-75
2021/07/18 00:53:43;243043.00;0.81;419.99;77673.00;0.26;135.02;;;;;23.50;75.70;;;;;;2256406;61;5898;-75
2021/07/18 00:56:09;71500.00;0.24;124.35;0.00;0.00;0.62;;;;;23.50;75.70;;;;;;2254479;61;6232;-75
2021/07/18 00:58:36;0.00;0.00;0.62;0.00;0.00;0.62;;;;;23.60;75.70;;;;;;2255269;61;6852;-74
2021/07/18 01:01:01;0.00;0.00;0.62;0.00;0.00;0.62;;;;;23.50;75.70;;;;;;2262264;61;6136;-74
2021/07/18 01:03:27;0.00;0.00;0.62;0.00;0.00;0.62;;;;;23.50;75.90;;;;;;2262053;61;5890;-75
2021/07/18 01:05:53;0.00;0.00;0.62;0.00;0.00;0.62;;;;;23.50;76.00;;;;;;2251928;61;8949;-75
2021/07/18 01:08:19;0.00;0.00;0.62;0.00;0.00;0.62;;;;;23.50;75.90;;;;;;2255661;61;5949;-75
2021/07/18 01:10:44;116117.00;0.39;201.38;0.00;0.00;0.62;;;;;23.50;76.00;;;;;;2255949;61;6064;-75
2021/07/18 01:13:10;95613.00;0.32;166.00;0.00;0.00;0.62;;;;;23.50;76.00;;;;;;2255810;61;6134;-75
2021/07/18 01:15:39;0.00;0.00;0.62;0.00;0.00;0.62;;;;;23.50;76.10;;;;;;2254804;61;6227;-75
2021/07/18 01:18:06;0.00;0.00;0.62;0.00;0.00;0.62;;;;;23.60;76.10;;;;;;2255774;61;6333;-74
2021/07/18 01:20:32;0.00;0.00;0.62;0.00;0.00;0.62;;;;;23.60;76.10;;;;;;2252236;61;5991;-75
2021/07/18 01:22:58;0.00;0.00;0.62;0.00;0.00;0.62;;;;;23.60;76.00;;;;;;2261851;61;9017;-75
2021/07/18 01:25:23;0.00;0.00;0.62;0.00;0.00;0.62;;;;;23.60;76.10;;;;;;2255440;61;5966;-75
2021/07/18 01:27:49;118774.00;0.40;205.97;0.00;0.00;0.62;;;;;23.60;76.00;;;;;;2260617;61;6735;-75
2021/07/18 01:30:15;0.00;0.00;0.62;0.00;0.00;0.62;;;;;23.60;76.20;;;;;;2254344;61;6389;-75
2021/07/18 01:32:42;233545.00;0.78;403.65;15882.00;0.05;28.14;;;;;23.60;76.10;;;;;;2256572;61;4865;-75
2021/07/18 01:35:08;194460.00;0.65;336.39;0.00;0.00;0.62;;;;;23.60;76.20;;;;;;2255447;61;6257;-75
2021/07/18 01:37:33;129234.00;0.43;224.01;41495.00;0.14;72.47;;;;;23.60;76.10;;;;;;2255488;61;5836;-75
2021/07/18 01:39:59;92514.00;0.31;160.65;0.00;0.00;0.62;;;;;23.60;76.20;;;;;;2255217;61;6278;-74
2021/07/18 01:42:25;0.00;0.00;0.62;0.00;0.00;0.62;;;;;23.60;76.10;;;;;;2262053;61;6097;-75
2021/07/18 01:44:51;56973.00;0.19;99.24;0.00;0.00;0.62;;;;;23.60;76.20;;;;;;2255775;61;6212;-75
2021/07/18 01:47:16;0.00;0.00;0.62;0.00;0.00;0.62;;;;;23.60;76.20;;;;;;2258115;61;6215;-75
2021/07/18 01:49:42;0.00;0.00;0.62;0.00;0.00;0.62;;;;;23.60;76.20;;;;;;2261944;61;6201;-75
2021/07/18 01:52:08;0.00;0.00;0.62;0.00;0.00;0.62;;;;;23.60;76.50;;;;;;2255121;61;6038;-75
2021/07/18 01:54:34;0.00;0.00;0.62;0.00;0.00;0.62;;;;;23.60;76.40;;;;;;2255552;61;5988;-75
2021/07/18 01:57:12;0.00;0.00;0.62;0.00;0.00;0.62;;;;;23.60;76.40;;;;;;2255280;61;6240;-75
2021/07/18 01:59:38;0.00;0.00;0.62;0.00;0.00;0.62;;;;;23.60;76.40;;;;;;2255269;61;5977;-75
2021/07/18 02:02:04;0.00;0.00;0.62;0.00;0.00;0.62;;;;;23.60;76.40;;;;;;2255311;61;6034;-75
2021/07/18 02:04:29;290275.00;0.97;501.20;0.00;0.00;0.62;;;;;23.60;76.40;;;;;;2255744;61;4118;-75
2021/07/18 02:06:55;0.00;0.00;0.62;0.00;0.00;0.62;;;;;23.60;76.40;;;;;;2253102;61;9882;-75
2021/07/18 02:09:21;0.00;0.00;0.62;0.00;0.00;0.62;;;;;23.60;76.40;;;;;;2256027;61;6024;-75
2021/07/18 02:11:46;0.00;0.00;0.62;0.00;0.00;0.62;;;;;23.60;76.40;;;;;;2255306;61;6350;-75
2021/07/18 02:14:12;0.00;0.00;0.62;0.00;0.00;0.62;;;;;23.60;76.40;;;;;;2255247;61;5993;-74
2021/07/18 02:16:37;9357.00;0.03;16.84;0.00;0.00;0.62;;;;;23.60;76.50;;;;;;2255528;61;6023;-75
2021/07/18 02:19:08;0.00;0.00;0.62;0.00;0.00;0.62;;;;;23.60;76.50;;;;;;2256016;61;6458;-74
2021/07/18 02:21:34;60101.00;0.20;104.65;0.00;0.00;0.62;;;;;23.60;76.50;;;;;;2261939;61;6197;-74
2021/07/18 02:24:00;0.00;0.00;0.62;0.00;0.00;0.62;;;;;23.60;76.50;;;;;;2258602;61;9121;-75
2021/07/18 02:26:29;0.00;0.00;0.62;0.00;0.00;0.62;;;;;23.60;76.50;;;;;;2255177;61;6376;-75
2021/07/18 02:28:58;0.00;0.00;0.62;0.00;0.00;0.62;;;;;23.60;76.50;;;;;;2254887;61;4593;-75
2021/07/18 02:31:24;0.00;0.00;0.62;0.00;0.00;0.62;;;;;23.60;76.50;;;;;;2261517;61;6118;-74
2021/07/18 02:33:49;0.00;0.00;0.62;0.00;0.00;0.62;;;;;23.60;76.50;;;;;;2254658;61;6182;-75
2021/07/18 02:36:15;0.00;0.00;0.62;0.00;0.00;0.62;;;;;23.60;76.60;;;;;;2261868;61;5964;-75
2021/07/18 02:38:40;0.00;0.00;0.62;0.00;0.00;0.62;;;;;23.60;76.60;;;;;;2255749;61;6617;-75
2021/07/18 02:41:06;0.00;0.00;0.62;0.00;0.00;0.62;;;;;23.60;76.60;;;;;;2255525;61;7118;-75
2021/07/18 02:43:32;0.00;0.00;0.62;0.00;0.00;0.62;;;;;23.60;76.60;;;;;;2256024;61;6034;-75
2021/07/18 02:45:57;0.00;0.00;0.62;0.00;0.00;0.62;;;;;23.60;76.60;;;;;;2254091;61;6422;-75
2021/07/18 02:48:23;0.00;0.00;0.62;0.00;0.00;0.62;;;;;23.60;76.50;;;;;;2254986;61;6065;-75
2021/07/18 02:50:49;0.00;0.00;0.62;0.00;0.00;0.62;;;;;23.60;76.60;;;;;;2255181;61;5991;-75
2021/07/18 02:53:14;0.00;0.00;0.62;0.00;0.00;0.62;;;;;23.60;76.60;;;;;;2255695;61;6015;-75
2021/07/18 02:55:40;0.00;0.00;0.62;0.00;0.00;0.62;;;;;23.60;76.60;;;;;;2255888;61;6104;-75
2021/07/18 02:58:06;31130.00;0.10;54.54;0.00;0.00;0.62;;;;;23.60;76.80;;;;;;2254270;61;5897;-75
2021/07/18 03:00:31;123391.00;0.41;213.93;0.00;0.00;0.62;;;;;23.60;76.80;;;;;;2255985;61;6073;-75
2021/07/18 03:02:57;86863.00;0.29;150.89;0.00;0.00;0.62;;;;;23.60;76.60;;;;;;2256188;61;5843;-75
2021/07/18 03:05:22;0.00;0.00;0.62;0.00;0.00;0.62;;;;;23.60;76.90;;;;;;2255495;61;6166;-74
2021/07/18 03:07:48;0.00;0.00;0.62;0.00;0.00;0.62;;;;;23.50;76.90;;;;;;2254424;61;6043;-75
2021/07/18 03:10:15;0.00;0.00;0.62;0.00;0.00;0.62;;;;;23.60;76.90;;;;;;2255060;61;6441;-75
2021/07/18 03:12:41;0.00;0.00;0.62;0.00;0.00;0.62;;;;;23.50;76.90;;;;;;2255368;61;6183;-75
2021/07/18 03:15:09;0.00;0.00;0.62;0.00;0.00;0.62;;;;;23.50;76.90;;;;;;2255547;61;6177;-75
2021/07/18 03:17:35;0.00;0.00;0.62;0.00;0.00;0.62;;;;;23.60;76.80;;;;;;2255215;61;5936;-75
2021/07/18 03:20:02;0.00;0.00;0.62;0.00;0.00;0.62;;;;;23.60;76.80;;;;;;2257696;61;5879;-75
2021/07/18 03:22:28;0.00;0.00;0.62;0.00;0.00;0.62;;;;;23.50;76.90;;;;;;2258101;61;6047;-75
2021/07/18 03:24:54;0.00;0.00;0.62;0.00;0.00;0.62;;;;;23.50;76.90;;;;;;2255579;61;6226;-75
2021/07/18 03:27:20;0.00;0.00;0.62;0.00;0.00;0.62;;;;;23.50;76.90;;;;;;2254641;61;6247;-75
2021/07/18 03:29:45;0.00;0.00;0.62;0.00;0.00;0.62;;;;;23.50;76.90;;;;;;2255447;61;6130;-75
2021/07/18 03:32:11;0.00;0.00;0.62;0.00;0.00;0.62;;;;;23.60;76.80;;;;;;2255392;61;6020;-75
2021/07/18 03:34:36;0.00;0.00;0.62;0.00;0.00;0.62;;;;;23.60;76.80;;;;;;2261163;61;6446;-74
2021/07/18 03:37:02;0.00;0.00;0.62;0.00;0.00;0.62;;;;;23.60;76.80;;;;;;2255766;61;5900;-74
2021/07/18 03:39:28;0.00;0.00;0.62;0.00;0.00;0.62;;;;;23.60;76.90;;;;;;2254918;61;6373;-74
2021/07/18 03:41:53;0.00;0.00;0.62;0.00;0.00;0.62;;;;;23.50;76.90;;;;;;2255729;61;5898;-73
2021/07/18 03:44:19;0.00;0.00;0.62;0.00;0.00;0.62;;;;;23.60;76.80;;;;;;2255222;61;6168;-74
2021/07/18 03:46:44;0.00;0.00;0.62;0.00;0.00;0.62;;;;;23.60;76.80;;;;;;2254994;61;6235;-74
2021/07/18 03:49:11;0.00;0.00;0.62;0.00;0.00;0.62;;;;;23.60;76.80;;;;;;2255081;61;6853;-75
2021/07/18 03:51:36;0.00;0.00;0.62;0.00;0.00;0.62;;;;;23.60;76.90;;;;;;2255203;61;6598;-74
2021/07/18 03:54:02;0.00;0.00;0.62;0.00;0.00;0.62;;;;;23.50;76.90;;;;;;2255855;61;6021;-74
2021/07/18 03:56:27;36797.00;0.12;64.35;0.00;0.00;0.62;;;;;23.60;76.80;;;;;;2255361;61;6175;-74
2021/07/18 03:58:53;0.00;0.00;0.62;0.00;0.00;0.62;;;;;23.60;76.90;;;;;;2254622;61;6202;-74
2021/07/18 04:01:19;0.00;0.00;0.62;0.00;0.00;0.62;;;;;23.50;76.80;;;;;;2255182;61;6124;-75
2021/07/18 04:03:48;0.00;0.00;0.62;0.00;0.00;0.62;;;;;23.50;76.90;;;;;;2254660;61;6153;-74
2021/07/18 04:06:14;51568.00;0.17;89.90;0.00;0.00;0.62;;;;;23.50;76.90;;;;;;2255217;61;6327;-74
2021/07/18 04:08:40;0.00;0.00;0.62;0.00;0.00;0.62;;;;;23.50;76.90;;;;;;2255078;61;6175;-74
2021/07/18 04:11:06;0.00;0.00;0.62;0.00;0.00;0.62;;;;;23.50;76.90;;;;;;2254997;61;6183;-74
2021/07/18 04:13:31;0.00;0.00;0.62;0.00;0.00;0.62;;;;;23.50;76.90;;;;;;2255240;61;5532;-74
2021/07/18 04:15:57;0.00;0.00;0.62;0.00;0.00;0.62;;;;;23.50;76.90;;;;;;2254756;61;6212;-75
2021/07/18 04:18:22;0.00;0.00;0.62;0.00;0.00;0.62;;;;;23.50;76.90;;;;;;2254793;61;5991;-74
2021/07/18 04:20:48;0.00;0.00;0.62;0.00;0.00;0.62;;;;;23.50;76.90;;;;;;2255238;61;6988;-74
2021/07/18 04:23:14;0.00;0.00;0.62;0.00;0.00;0.62;;;;;23.50;76.90;;;;;;2255270;61;6039;-75
2021/07/18 04:25:39;0.00;0.00;0.62;0.00;0.00;0.62;;;;;23.50;76.80;;;;;;2255367;61;6079;-75
2021/07/18 04:28:05;0.00;0.00;0.62;0.00;0.00;0.62;;;;;23.50;76.80;;;;;;2255167;61;6174;-74
2021/07/18 04:30:31;0.00;0.00;0.62;0.00;0.00;0.62;;;;;23.50;76.80;;;;;;2254434;61;6380;-75
2021/07/18 04:32:56;0.00;0.00;0.62;0.00;0.00;0.62;;;;;23.50;76.80;;;;;;2255881;61;5933;-75
2021/07/18 04:35:22;45786.00;0.15;79.90;0.00;0.00;0.62;;;;;23.60;76.80;;;;;;2255469;61;6360;-74
2021/07/18 04:37:47;213945.00;0.71;369.92;0.00;0.00;0.62;;;;;23.60;76.80;;;;;;2255329;61;6248;-74
2021/07/18 04:40:13;0.00;0.00;0.62;0.00;0.00;0.62;;;;;23.50;76.80;;;;;;2256108;61;6389;-74
2021/07/18 04:42:39;122398.00;0.41;212.22;39431.00;0.13;68.90;;;;;23.50;76.80;;;;;;2254898;61;6051;-74
2021/07/18 04:45:06;0.00;0.00;0.62;0.00;0.00;0.62;;;;;23.50;76.80;;;;;;2254935;61;6494;-74
2021/07/18 04:47:32;0.00;0.00;0.62;0.00;0.00;0.62;;;;;23.50;76.80;;;;;;2254700;61;6033;-74
2021/07/18 04:49:57;0.00;0.00;0.62;0.00;0.00;0.62;;;;;23.50;76.80;;;;;;2255178;61;5939;-75
2021/07/18 04:52:23;0.00;0.00;0.62;0.00;0.00;0.62;;;;;23.50;76.60;;;;;;2260314;61;6162;-75
2021/07/18 04:54:49;0.00;0.00;0.62;0.00;0.00;0.62;;;;;23.60;76.50;;;;;;2256063;61;6251;-75
2021/07/18 04:57:14;101441.00;0.34;176.06;0.00;0.00;0.62;;;;;23.60;75.90;;;;;;2255545;61;6073;-75
2021/07/18 04:59:40;0.00;0.00;0.62;0.00;0.00;0.62;;;;;23.50;75.90;;;;;;2255249;61;6321;-75
2021/07/18 05:02:05;157389.00;0.52;272.54;0.00;0.00;0.62;;;;;23.50;76.10;;;;;;2261527;61;6057;-76
2021/07/18 05:04:31;266469.00;0.89;460.27;0.00;0.00;0.62;;;;;23.50;75.60;;;;;;2255332;61;6136;-76
2021/07/18 05:06:57;25981.00;0.09;45.63;0.00;0.00;0.62;;;;;23.50;75.50;;;;;;2255747;61;6119;-76
2021/07/18 05:09:22;0.00;0.00;0.62;0.00;0.00;0.62;;;;;23.50;75.30;;;;;;2255850;61;6121;-75
2021/07/18 05:11:48;89277.00;0.30;155.06;0.00;0.00;0.62;;;;;23.50;75.20;;;;;;2255947;61;5885;-75
2021/07/18 05:14:13;0.00;0.00;0.62;0.00;0.00;0.62;;;;;23.40;75.30;;;;;;2256057;61;6175;-76
2021/07/18 05:16:39;0.00;0.00;0.62;0.00;0.00;0.62;;;;;23.40;75.30;;;;;;2255691;61;5488;-75
2021/07/18 05:19:04;0.00;0.00;0.62;0.00;0.00;0.62;;;;;23.40;75.30;;;;;;2255947;61;6034;-75
2021/07/18 05:21:30;0.00;0.00;0.62;0.00;0.00;0.62;;;;;23.40;75.30;;;;;;2255793;61;5988;-76
2021/07/18 05:23:56;26123.00;0.09;45.87;0.00;0.00;0.62;;;;;23.40;75.20;;;;;;2255882;61;6075;-75
2021/07/18 05:26:21;98099.00;0.33;170.29;0.00;0.00;0.62;;;;;23.30;75.20;;;;;;2256043;61;6130;-75
2021/07/18 05:28:47;0.00;0.00;0.62;0.00;0.00;0.62;;;;;23.40;75.20;;;;;;2255033;61;6201;-75
2021/07/18 05:31:13;0.00;0.00;0.62;0.00;0.00;0.62;;;;;23.40;75.10;;;;;;2262192;61;6087;-75
2021/07/18 05:33:38;0.00;0.00;0.62;0.00;0.00;0.62;;;;;23.40;75.10;;;;;;2261074;61;6322;-75
2021/07/18 05:36:04;0.00;0.00;0.62;0.00;0.00;0.62;;;;;23.40;74.90;;;;;;2254963;61;6096;-75
2021/07/18 05:38:30;0.00;0.00;0.62;0.00;0.00;0.62;;;;;23.40;74.90;;;;;;2261778;61;4161;-75
2021/07/18 05:40:55;244803.00;0.82;423.01;18480.00;0.06;32.64;;;;;23.40;74.80;;;;;;2256053;61;6266;-75
2021/07/18 05:43:21;0.00;0.00;0.62;0.00;0.00;0.62;;;;;23.30;74.80;;;;;;2256014;61;6143;-75
2021/07/18 05:45:47;0.00;0.00;0.62;0.00;0.00;0.62;;;;;23.40;74.80;;;;;;2255706;61;6106;-75
2021/07/18 05:48:13;0.00;0.00;0.62;0.00;0.00;0.62;;;;;23.40;74.70;;;;;;2255542;61;6215;-75
2021/07/18 05:50:38;0.00;0.00;0.62;0.00;0.00;0.62;;;;;23.40;74.60;;;;;;2256088;61;5964;-75
2021/07/18 05:53:04;0.00;0.00;0.62;0.00;0.00;0.62;;;;;23.40;74.60;;;;;;2256000;61;6250;-75
2021/07/18 05:55:30;0.00;0.00;0.62;0.00;0.00;0.62;;;;;23.40;74.40;;;;;;2255295;61;6741;-75
2021/07/18 05:57:55;0.00;0.00;0.62;0.00;0.00;0.62;;;;;23.40;74.30;;;;;;2254766;61;6396;-75
2021/07/18 06:00:21;0.00;0.00;0.62;0.00;0.00;0.62;;;;;23.40;74.20;;;;;;2255707;61;6224;-75
2021/07/18 06:02:47;0.00;0.00;0.62;0.00;0.00;0.62;;;;;23.40;74.20;;;;;;2254815;61;6109;-75
2021/07/18 06:05:12;0.00;0.00;0.62;0.00;0.00;0.62;;;;;23.40;74.20;;;;;;2254168;61;7128;-75
2021/07/18 06:07:38;79463.00;0.26;138.11;0.00;0.00;0.62;;;;;23.40;74.00;;;;;;2255319;61;6112;-75
2021/07/18 06:10:05;263477.00;0.88;455.13;0.00;0.00;0.62;;;;;23.40;74.00;;;;;;2255337;61;6088;-77
2021/07/18 06:12:31;0.00;0.00;0.62;0.00;0.00;0.62;;;;;23.40;73.90;;;;;;2254352;61;6084;-75
2021/07/18 06:14:58;0.00;0.00;0.62;0.00;0.00;0.62;;;;;23.40;73.90;;;;;;2254751;61;5925;-75
2021/07/18 06:17:24;459512.00;1.53;792.15;167810.00;0.56;290.49;;;;;23.40;73.80;;;;;;2255503;61;6181;-75
2021/07/18 06:19:49;52800.00;0.18;92.03;0.00;0.00;0.62;;;;;23.40;73.80;;;;;;2254632;61;6271;-75
2021/07/18 06:22:16;66563.00;0.22;115.82;0.00;0.00;0.62;;;;;23.40;73.70;;;;;;2255938;61;6202;-75
2021/07/18 06:24:42;0.00;0.00;0.62;0.00;0.00;0.62;;;;;23.40;73.50;;;;;;2255820;61;5856;-75
2021/07/18 06:27:07;0.00;0.00;0.62;0.00;0.00;0.62;;;;;23.40;73.40;;;;;;2255655;61;6013;-75
2021/07/18 06:29:34;194263.00;0.65;336.05;51510.00;0.17;89.80;;;;;23.40;73.30;;;;;;2255594;61;6769;-75
2021/07/18 06:31:59;105504.00;0.35;183.07;0.00;0.00;0.62;;;;;23.40;73.10;;;;;;2254896;61;6147;-75
2021/07/18 06:34:26;0.00;0.00;0.62;0.00;0.00;0.62;;;;;23.40;73.10;;;;;;2255140;61;6180;-75
2021/07/18 06:36:52;9088.00;0.03;16.37;0.00;0.00;0.62;;;;;23.40;73.10;;;;;;2255528;61;5878;-75
2021/07/18 06:39:18;0.00;0.00;0.62;0.00;0.00;0.62;;;;;23.40;73.00;;;;;;2255634;61;6515;-75
2021/07/18 06:41:44;0.00;0.00;0.62;0.00;0.00;0.62;;;;;23.40;73.00;;;;;;2255036;61;5926;-75
2021/07/18 06:44:10;0.00;0.00;0.62;0.00;0.00;0.62;;;;;23.40;72.70;;;;;;2255326;61;5913;-75
2021/07/18 06:46:36;256939.00;0.86;443.88;177534.00;0.59;307.24;;;;;23.40;72.60;;;;;;2255480;61;6000;-75
2021/07/18 06:49:01;0.00;0.00;0.62;0.00;0.00;0.62;;;;;23.40;72.60;;;;;;2259590;61;6379;-75
2021/07/18 06:51:27;83651.00;0.28;145.34;0.00;0.00;0.62;;;;;23.40;72.70;;;;;;2254565;61;6711;-75
2021/07/18 06:53:53;151578.00;0.51;262.53;51293.00;0.17;89.42;;;;;23.50;73.70;;;;;;2254611;61;6045;-75
2021/07/18 06:56:18;129669.00;0.43;224.76;60824.00;0.20;105.90;;;;;23.50;74.20;;;;;;2254369;61;6269;-75
2021/07/18 06:58:44;0.00;0.00;0.62;0.00;0.00;0.62;;;;;23.50;73.30;;;;;;2254850;61;6164;-76
2021/07/18 07:01:09;478009.00;1.59;823.97;209185.00;0.70;361.73;;;;;23.50;73.70;;;;;;2254287;61;5748;-75
2021/07/18 07:03:35;0.00;0.00;0.62;0.00;0.00;0.62;;;;;23.50;72.90;;;;;;2254964;61;2978;-75
2021/07/18 07:06:02;0.00;0.00;0.62;0.00;0.00;0.62;;;;;23.40;71.70;;;;;;2253308;61;6264;-75
2021/07/18 07:08:28;115369.00;0.38;200.09;36012.00;0.12;62.99;;;;;23.30;71.70;;;;;;2254611;61;2396;-76
2021/07/18 07:10:54;0.00;0.00;0.62;0.00;0.00;0.62;;;;;23.30;71.60;;;;;;2255666;61;3565;-76
2021/07/18 07:13:20;0.00;0.00;0.62;0.00;0.00;0.62;;;;;23.30;71.80;;;;;;2255396;61;2760;-76
2021/07/18 07:15:45;345864.00;1.15;596.75;0.00;0.00;0.62;;;;;23.40;71.30;;;;;;2255975;61;4563;-75
2021/07/18 07:18:11;0.00;0.00;0.62;0.00;0.00;0.62;;;;;23.40;71.10;;;;;;2254461;61;3851;-76
2021/07/18 07:20:37;100840.00;0.34;175.02;0.00;0.00;0.62;;;;;23.40;70.80;;;;;;2261302;61;2416;-76
2021/07/18 07:23:02;0.00;0.00;0.62;0.00;0.00;0.62;;;;;23.30;70.90;;;;;;2254461;61;3363;-76
2021/07/18 07:25:28;0.00;0.00;0.62;0.00;0.00;0.62;;;;;23.30;70.70;;;;;;2253865;61;4240;-75
2021/07/18 07:27:53;0.00;0.00;0.62;0.00;0.00;0.62;;;;;23.30;70.70;;;;;;2254177;61;4549;-76
2021/07/18 07:30:19;80815.00;0.27;140.45;0.00;0.00;0.62;;;;;23.30;70.70;;;;;;2254395;61;3512;-76
2021/07/18 07:32:45;0.00;0.00;0.62;0.00;0.00;0.62;;;;;23.30;70.80;;;;;;2255931;61;3637;-76
2021/07/18 07:35:15;121067.00;0.40;209.92;0.00;0.00;0.62;;;;;23.40;70.50;;;;;;2254641;61;3315;-76
2021/07/18 07:37:41;0.00;0.00;0.62;0.00;0.00;0.62;;;;;23.40;70.40;;;;;;2261956;61;4072;-76
2021/07/18 07:40:08;75975.00;0.25;132.08;0.00;0.00;0.62;;;;;23.30;70.70;;;;;;2261834;61;3604;-76
2021/07/18 07:42:33;188739.00;0.63;326.54;11452.00;0.04;20.46;;;;;23.30;70.80;;;;;;2255837;61;3456;-75
2021/07/18 07:45:03;350059.00;1.17;603.96;162274.00;0.54;280.96;;;;;23.30;70.50;;;;;;581947;61;10002173;-75
2021/07/18 07:47:29;0.00;0.00;0.62;0.00;0.00;0.62;;;;;23.30;71.10;;;;;;1851137;61;10001030;-76
2021/07/18 07:49:54;130018.00;0.43;225.36;61657.00;0.21;107.34;;;;;23.30;71.70;;;;;;2253976;61;3895;-75
2021/07/18 07:52:20;0.00;0.00;0.62;0.00;0.00;0.62;;;;;23.30;71.60;;;;;;2251976;61;3543;-76
2021/07/18 07:54:45;37835.00;0.13;66.14;0.00;0.00;0.62;;;;;23.30;71.30;;;;;;2254097;61;5636;-75
2021/07/18 07:57:11;402841.00;1.34;694.69;229960.00;0.77;397.48;;;;;23.30;71.70;;;;;;2253132;61;2642;-76
2021/07/18 07:59:37;184733.00;0.62;319.64;0.00;0.00;0.62;;;;;23.20;71.60;;;;;;2254005;61;3808;-76
2021/07/18 08:02:02;0.00;0.00;0.62;0.00;0.00;0.62;;;;;23.30;72.10;;;;;;2251560;61;5885;-75
2021/07/18 08:04:28;157305.00;0.52;272.40;0.00;0.00;0.62;;;;;23.30;72.10;;;;;;2255201;61;5822;-75
2021/07/18 08:06:54;0.00;0.00;0.62;0.00;0.00;0.62;;;;;23.30;72.10;;;;;;2253772;61;4480;-76
2021/07/18 08:09:20;73906.00;0.25;128.51;0.00;0.00;0.62;;;;;23.30;71.70;;;;;;2252030;61;5892;-76
2021/07/18 08:11:46;0.00;0.00;0.62;0.00;0.00;0.62;;;;;23.30;72.00;;;;;;2252944;61;6487;-75
2021/07/18 08:14:12;270229.00;0.90;466.74;0.00;0.00;0.62;;;;;23.30;72.00;;;;;;2250282;61;5940;-75
2021/07/18 08:16:37;0.00;0.00;0.62;0.00;0.00;0.62;;;;;23.30;71.60;;;;;;2252248;61;6364;-76
2021/07/18 08:19:03;56117.00;0.19;97.76;0.00;0.00;0.62;;;;;23.20;71.50;;;;;;2254398;61;6529;-76
2021/07/18 08:21:29;0.00;0.00;0.62;0.00;0.00;0.62;;;;;23.20;71.50;;;;;;2253031;61;6518;-75
2021/07/18 08:23:54;62255.00;0.21;108.37;0.00;0.00;0.62;;;;;23.20;71.60;;;;;;2252610;61;6072;-75
2021/07/18 08:26:21;240747.00;0.80;416.04;47526.00;0.16;82.91;;;;;23.20;72.00;;;;;;2252453;61;4895;-76
2021/07/18 08:28:46;0.00;0.00;0.62;0.00;0.00;0.62;;;;;23.20;71.80;;;;;;2253003;61;5843;-76
2021/07/18 08:31:12;0.00;0.00;0.62;0.00;0.00;0.62;;;;;23.20;71.50;;;;;;2253236;61;6108;-76
2021/07/18 08:33:38;193293.00;0.64;334.38;123711.00;0.41;214.48;;;;;23.20;71.60;;;;;;2252403;61;6168;-76
2021/07/18 08:36:04;0.00;0.00;0.62;0.00;0.00;0.62;;;;;23.20;71.60;;;;;;2252658;61;5841;-75
2021/07/18 08:38:29;0.00;0.00;0.62;0.00;0.00;0.62;;;;;23.20;72.00;;;;;;2252508;61;6500;-75
2021/07/18 08:40:55;14382.00;0.05;25.54;0.00;0.00;0.62;;;;;23.20;72.00;;;;;;2253342;61;5843;-76
2021/07/18 08:43:21;0.00;0.00;0.62;0.00;0.00;0.62;;;;;23.30;71.80;;;;;;2256328;61;6137;-76
2021/07/18 08:45:47;0.00;0.00;0.62;0.00;0.00;0.62;;;;;23.30;72.10;;;;;;2256757;61;5981;-75
2021/07/18 08:48:12;32702.00;0.11;57.26;0.00;0.00;0.62;;;;;23.30;72.50;;;;;;2252831;61;6033;-75
2021/07/18 08:50:38;67620.00;0.23;117.65;0.00;0.00;0.62;;;;;23.30;72.10;;;;;;2256929;61;5984;-76
2021/07/18 08:53:04;251892.00;0.84;435.20;67113.00;0.22;116.77;;;;;23.20;71.80;;;;;;2253225;61;6146;-75
2021/07/18 08:55:29;0.00;0.00;0.62;0.00;0.00;0.62;;;;;23.20;71.60;;;;;;2253730;61;6094;-76
2021/07/18 08:57:56;0.00;0.00;0.62;0.00;0.00;0.62;;;;;23.20;72.10;;;;;;2252888;61;6871;-76
2021/07/18 09:00:22;0.00;0.00;0.62;0.00;0.00;0.62;;;;;23.30;72.20;;;;;;2258718;61;5780;-76
2021/07/18 09:02:48;0.00;0.00;0.62;0.00;0.00;0.62;;;;;23.30;72.20;;;;;;2252579;61;6353;-75
2021/07/18 09:05:13;70297.00;0.23;122.27;0.00;0.00;0.62;;;;;23.30;72.40;;;;;;2253636;61;6185;-75
2021/07/18 09:07:47;0.00;0.00;0.62;0.00;0.00;0.62;;;;;23.30;72.10;;;;;;2253804;61;6148;-76
2021/07/18 09:10:13;378378.00;1.26;652.64;24437.00;0.08;42.95;;;;;23.30;72.40;;;;;;2252805;61;6010;-76
2021/07/18 09:12:39;45218.00;0.15;78.92;0.00;0.00;0.62;;;;;23.30;71.80;;;;;;2259306;61;6109;-76
2021/07/18 09:15:07;0.00;0.00;0.62;0.00;0.00;0.62;;;;;23.30;72.10;;;;;;2259464;61;6059;-76
2021/07/18 09:17:34;0.00;0.00;0.62;0.00;0.00;0.62;;;;;23.30;72.00;;;;;;2253963;61;6229;-75
2021/07/18 09:20:15;0.00;0.00;0.62;0.00;0.00;0.62;;;;;23.30;72.10;;;;;;2253064;61;6200;-76
2021/07/18 09:22:41;117963.00;0.39;204.57;0.00;0.00;0.62;;;;;23.30;72.40;;;;;;2256375;61;6132;-76
2021/07/18 09:25:07;155089.00;0.52;268.58;53540.00;0.18;93.31;;;;;23.30;72.20;;;;;;2253115;61;6201;-75
2021/07/18 09:27:33;0.00;0.00;0.62;0.00;0.00;0.62;;;;;23.30;72.10;;;;;;2252847;61;5908;-76
2021/07/18 09:30:10;28509.00;0.10;50.00;0.00;0.00;0.62;;;;;23.30;72.40;;;;;;2258354;61;6252;-75
2021/07/18 09:32:38;0.00;0.00;0.62;0.00;0.00;0.62;;;;;23.30;72.40;;;;;;2259016;61;5885;-75
2021/07/18 09:35:07;94630.00;0.32;164.30;0.00;0.00;0.62;;;;;23.40;72.20;;;;;;2254435;61;6040;-76
2021/07/18 09:37:35;107547.00;0.36;186.60;0.00;0.00;0.62;;;;;23.30;71.80;;;;;;2255551;61;6256;-75
2021/07/18 09:40:17;0.00;0.00;0.62;0.00;0.00;0.62;;;;;23.30;72.00;;;;;;2255251;61;5953;-75
2021/07/18 09:42:47;100691.00;0.34;174.76;0.00;0.00;0.62;;;;;23.40;72.40;;;;;;2251221;61;6277;-76
2021/07/18 09:45:13;73204.00;0.24;127.30;0.00;0.00;0.62;;;;;23.40;72.10;;;;;;2253490;61;6236;-75
2021/07/18 09:47:51;0.00;0.00;0.62;0.00;0.00;0.62;;;;;23.40;72.40;;;;;;2253304;61;5902;-75
2021/07/18 09:50:18;367618.00;1.23;634.14;227741.00;0.76;393.66;;;;;23.40;72.40;;;;;;2251734;61;5904;-75
2021/07/18 09:52:48;127350.00;0.42;220.76;0.00;0.00;0.62;;;;;23.40;72.40;;;;;;2252728;61;5919;-75
2021/07/18 09:55:20;0.00;0.00;0.62;0.00;0.00;0.62;;;;;23.40;72.70;;;;;;2253632;61;4575;-75
2021/07/18 09:57:46;0.00;0.00;0.62;0.00;0.00;0.62;;;;;23.40;72.90;;;;;;2255553;61;6122;-76
2021/07/18 10:00:12;38968.00;0.13;68.10;0.00;0.00;0.62;;;;;23.40;72.90;;;;;;2255274;61;6259;-76
2021/07/18 10:02:41;0.00;0.00;0.62;0.00;0.00;0.62;;;;;23.50;72.90;;;;;;2252327;61;5972;-76
2021/07/18 10:05:14;0.00;0.00;0.62;0.00;0.00;0.62;;;;;23.50;72.90;;;;;;2254556;61;6158;-76
2021/07/18 10:07:39;0.00;0.00;0.62;0.00;0.00;0.62;;;;;23.50;73.40;;;;;;2259733;61;5820;-75
2021/07/18 10:10:06;0.00;0.00;0.62;0.00;0.00;0.62;;;;;23.50;72.90;;;;;;2252172;61;5834;-76
2021/07/18 10:12:32;0.00;0.00;0.62;0.00;0.00;0.62;;;;;23.50;72.60;;;;;;2253030;61;6566;-75
2021/07/18 10:14:59;0.00;0.00;0.62;0.00;0.00;0.62;;;;;23.50;73.00;;;;;;2252921;61;6178;-75